Time;durP1;ratioP1;P1;durP2;ratioP2;P2;SDS_P1;SDS_P2;PMS_P1;PMS_P2;Temp;Humidity;BMP_temperature;BMP_pressure;BME280_temperature;BME280_humidity;BME280_pressure;Samples;Min_cycle;Max_cycle;Signal;HPM_P1;HPM_P2
2023/11/26 00:00:23;;;;;;;3.38;2.97;;;;;;;;;;6280896;22;20255;-79
2023/11/26 00:02:51;;;;;;;3.28;2.72;;;;;;;;;;6280931;22;20176;-78
2023/11/26 00:05:19;;;;;;;2.63;2.28;;;;;;;;;;6280760;22;20191;-78
2023/11/26 00:07:47;;;;;;;5.75;2.90;;;;;;;;;;6281071;22;20192;-79
2023/11/26 00:10:15;;;;;;;4.68;3.45;;;;;;;;;;6281237;22;20231;-79
2023/11/26 00:12:43;;;;;;;5.40;3.53;;;;;;;;;;6280678;22;20232;-76
2023/11/26 00:15:13;;;;;;;4.28;3.60;;;;;;;;;;6280534;22;20176;-77
2023/11/26 00:17:40;;;;;;;6.05;3.30;;;;;;;;;;6279527;22;20279;-77
2023/11/26 00:20:09;;;;;;;3.70;3.35;;;;;;;;;;6279784;22;20192;-78
2023/11/26 00:22:37;;;;;;;4.25;3.72;;;;;;;;;;6280631;22;20184;-78
2023/11/26 00:25:07;;;;;;;5.50;3.83;;;;;;;;;;6280516;22;20169;-77
2023/11/26 00:27:34;;;;;;;3.92;3.13;;;;;;;;;;6281120;22;20372;-78
2023/11/26 00:30:03;;;;;;;4.07;2.58;;;;;;;;;;6280568;22;20259;-78
2023/11/26 00:32:30;;;;;;;4.10;2.67;;;;;;;;;;6281173;22;20204;-79
2023/11/26 00:34:58;;;;;;;3.92;3.53;;;;;;;;;;6281052;22;20207;-79
2023/11/26 00:37:25;;;;;;;4.60;3.15;;;;;;;;;;6280256;22;20319;-77
2023/11/26 00:39:52;;;;;;;3.83;3.08;;;;;;;;;;6279999;22;20223;-79
2023/11/26 00:42:21;;;;;;;3.05;2.75;;;;;;;;;;6280800;22;20212;-77
2023/11/26 00:44:49;;;;;;;3.22;2.95;;;;;;;;;;6280349;22;20228;-78
2023/11/26 00:47:16;;;;;;;4.07;3.17;;;;;;;;;;6281158;22;20255;-78
2023/11/26 00:49:43;;;;;;;3.83;2.67;;;;;;;;;;6279923;22;20174;-78
2023/11/26 00:52:11;;;;;;;4.75;3.33;;;;;;;;;;6280376;22;20696;-78
2023/11/26 00:54:39;;;;;;;3.65;3.35;;;;;;;;;;6281440;22;20412;-79
2023/11/26 00:57:06;;;;;;;3.97;3.58;;;;;;;;;;6280606;22;20232;-79
2023/11/26 00:59:35;;;;;;;4.07;3.72;;;;;;;;;;6281260;22;20587;-78
2023/11/26 01:02:07;;;;;;;4.22;3.83;;;;;;;;;;6281359;22;20231;-78
2023/11/26 01:04:34;;;;;;;16.33;4.30;;;;;;;;;;6281598;22;20586;-79
2023/11/26 01:07:02;;;;;;;13.07;6.28;;;;;;;;;;6280764;22;20238;-78
2023/11/26 01:09:29;;;;;;;4.70;4.20;;;;;;;;;;6279720;22;20188;-77
2023/11/26 01:11:57;;;;;;;6.45;4.30;;;;;;;;;;6280632;22;20183;-78
2023/11/26 01:14:25;;;;;;;3.88;3.58;;;;;;;;;;6280236;22;20260;-79
2023/11/26 01:16:54;;;;;;;5.00;4.30;;;;;;;;;;6280438;22;20176;-78
2023/11/26 01:19:21;;;;;;;6.75;3.92;;;;;;;;;;6280632;22;20267;-78
2023/11/26 01:21:49;;;;;;;4.68;4.18;;;;;;;;;;6280066;22;20176;-79
2023/11/26 01:24:16;;;;;;;5.25;4.05;;;;;;;;;;6279888;22;20680;-78
2023/11/26 01:26:44;;;;;;;5.63;4.40;;;;;;;;;;6279567;22;20176;-78
2023/11/26 01:29:11;;;;;;;5.15;4.18;;;;;;;;;;6279337;22;20204;-77
2023/11/26 01:31:38;;;;;;;6.65;5.20;;;;;;;;;;6278948;22;20298;-78
2023/11/26 01:34:08;;;;;;;6.05;3.90;;;;;;;;;;6280253;22;20176;-77
2023/11/26 01:36:35;;;;;;;5.75;4.65;;;;;;;;;;6280108;22;20211;-78
2023/11/26 01:39:03;;;;;;;5.13;4.05;;;;;;;;;;6279252;22;20202;-78
2023/11/26 01:41:30;;;;;;;4.10;3.70;;;;;;;;;;6280423;22;20200;-78
2023/11/26 01:43:58;;;;;;;4.28;3.72;;;;;;;;;;6280453;22;20176;-77
2023/11/26 01:46:27;;;;;;;6.68;4.97;;;;;;;;;;6280105;22;20676;-78
2023/11/26 01:48:54;;;;;;;7.10;4.32;;;;;;;;;;6279844;22;20196;-78
2023/11/26 01:51:24;;;;;;;4.72;4.20;;;;;;;;;;6279783;22;20263;-78
2023/11/26 01:53:53;;;;;;;6.45;4.18;;;;;;;;;;6279715;22;20188;-78
2023/11/26 01:56:21;;;;;;;4.57;4.18;;;;;;;;;;6280283;22;20173;-77
2023/11/26 01:58:49;;;;;;;5.43;4.32;;;;;;;;;;6280204;22;20220;-77
2023/11/26 02:01:17;;;;;;;5.95;4.40;;;;;;;;;;6279600;22;20259;-78
2023/11/26 02:03:44;;;;;;;5.25;4.40;;;;;;;;;;6280131;22;20259;-78
2023/11/26 02:06:12;;;;;;;5.32;4.38;;;;;;;;;;6280660;22;20522;-79
2023/11/26 02:08:41;;;;;;;4.40;4.00;;;;;;;;;;6279636;22;20199;-78
2023/11/26 02:11:09;;;;;;;5.22;4.13;;;;;;;;;;6280045;22;20175;-78
2023/11/26 02:13:45;;;;;;;5.70;4.15;;;;;;;;;;6279980;22;20195;-79
2023/11/26 02:16:13;;;;;;;6.35;4.28;;;;;;;;;;6280442;22;20172;-78
2023/11/26 02:18:41;;;;;;;4.78;3.55;;;;;;;;;;6279505;22;20255;-75
2023/11/26 02:21:09;;;;;;;14.23;4.95;;;;;;;;;;6279118;22;20253;-79
2023/11/26 02:23:37;;;;;;;4.15;3.75;;;;;;;;;;6279793;22;20259;-78
2023/11/26 02:26:09;;;;;;;4.43;3.58;;;;;;;;;;6280171;22;20238;-77
2023/11/26 02:28:36;;;;;;;4.88;4.38;;;;;;;;;;6279890;22;20195;-79
2023/11/26 02:31:05;;;;;;;4.93;4.32;;;;;;;;;;6279953;22;20256;-78
2023/11/26 02:33:34;;;;;;;4.40;3.83;;;;;;;;;;6279122;22;20176;-78
2023/11/26 02:36:01;;;;;;;4.32;3.92;;;;;;;;;;6280268;22;20232;-78
2023/11/26 02:38:29;;;;;;;5.13;4.00;;;;;;;;;;6279174;22;20199;-78
2023/11/26 02:40:56;;;;;;;4.03;3.70;;;;;;;;;;6279168;22;20584;-79
2023/11/26 02:43:25;;;;;;;3.40;3.00;;;;;;;;;;6279000;22;20183;-79
2023/11/26 02:45:56;;;;;;;4.22;3.80;;;;;;;;;;6279688;22;20697;-78
2023/11/26 02:48:24;;;;;;;4.85;3.92;;;;;;;;;;6279716;22;20188;-79
2023/11/26 02:50:52;;;;;;;8.05;4.53;;;;;;;;;;6279972;22;20168;-78
2023/11/26 02:53:19;;;;;;;6.80;4.53;;;;;;;;;;6278809;22;20180;-78
2023/11/26 02:55:48;;;;;;;5.55;3.95;;;;;;;;;;6279757;22;20184;-78
2023/11/26 02:58:16;;;;;;;7.93;4.55;;;;;;;;;;6279901;22;20271;-77
2023/11/26 03:00:47;;;;;;;5.38;4.80;;;;;;;;;;6279061;22;20203;-77
2023/11/26 03:03:14;;;;;;;4.88;3.85;;;;;;;;;;6278828;22;20188;-78
2023/11/26 03:05:42;;;;;;;6.18;3.90;;;;;;;;;;6279982;22;20211;-78
2023/11/26 03:08:21;;;;;;;4.55;3.95;;;;;;;;;;6279448;22;20258;-78
2023/11/26 03:13:35;;;;;;;5.25;4.75;;;;;;;;;;6279850;22;20160;-78
2023/11/26 03:16:07;;;;;;;5.47;4.13;;;;;;;;;;6279434;22;20188;-78
2023/11/26 03:18:35;;;;;;;5.40;4.78;;;;;;;;;;6279068;22;20192;-78
2023/11/26 03:21:02;;;;;;;7.15;5.10;;;;;;;;;;6279600;22;20204;-78
2023/11/26 03:23:30;;;;;;;4.13;3.72;;;;;;;;;;6279451;22;20591;-77
2023/11/26 03:25:58;;;;;;;5.35;4.75;;;;;;;;;;6280106;22;20199;-78
2023/11/26 03:28:27;;;;;;;5.22;4.72;;;;;;;;;;6279749;22;20196;-78
2023/11/26 03:30:56;;;;;;;5.60;5.00;;;;;;;;;;6279807;22;20172;-78
2023/11/26 03:33:28;;;;;;;6.35;4.43;;;;;;;;;;6280001;22;20215;-77
2023/11/26 03:35:56;;;;;;;4.80;4.28;;;;;;;;;;6279724;22;20230;-78
2023/11/26 03:38:23;;;;;;;4.18;3.78;;;;;;;;;;6279348;22;20215;-78
2023/11/26 03:40:51;;;;;;;7.13;4.32;;;;;;;;;;6279568;22;20275;-79
2023/11/26 03:43:19;;;;;;;5.35;4.18;;;;;;;;;;6279583;22;20204;-77
2023/11/26 03:45:47;;;;;;;4.38;3.53;;;;;;;;;;6279960;22;20176;-78
2023/11/26 03:48:15;;;;;;;5.43;4.75;;;;;;;;;;6279832;22;20665;-78
2023/11/26 03:50:44;;;;;;;6.63;4.80;;;;;;;;;;6279355;22;20659;-77
2023/11/26 03:53:11;;;;;;;6.55;5.90;;;;;;;;;;6280584;22;20647;-78
2023/11/26 03:55:38;;;;;;;7.47;5.47;;;;;;;;;;6281692;22;20208;-78
2023/11/26 03:58:06;;;;;;;6.40;5.70;;;;;;;;;;6280863;22;20231;-78
2023/11/26 04:00:34;;;;;;;7.47;5.97;;;;;;;;;;6281685;22;20243;-78
2023/11/26 04:03:02;;;;;;;6.65;5.93;;;;;;;;;;6282177;22;20187;-78
2023/11/26 04:05:30;;;;;;;6.38;5.75;;;;;;;;;;6280959;22;20279;-77
2023/11/26 04:07:58;;;;;;;6.95;5.63;;;;;;;;;;6280605;22;20599;-78
2023/11/26 04:10:26;;;;;;;6.38;5.60;;;;;;;;;;6280554;22;20255;-76
2023/11/26 04:12:53;;;;;;;6.07;5.47;;;;;;;;;;6281122;22;20257;-78
2023/11/26 04:15:22;;;;;;;5.47;4.55;;;;;;;;;;6280992;22;20200;-78
2023/11/26 04:17:50;;;;;;;5.72;4.20;;;;;;;;;;6281393;22;20222;-78
2023/11/26 04:20:17;;;;;;;4.43;4.03;;;;;;;;;;6281208;22;20259;-78
2023/11/26 04:22:44;;;;;;;7.05;4.38;;;;;;;;;;6280752;22;20267;-78
2023/11/26 04:25:14;;;;;;;5.00;3.50;;;;;;;;;;6281100;22;20184;-78
2023/11/26 04:27:42;;;;;;;5.80;4.80;;;;;;;;;;6281412;22;20220;-78
2023/11/26 04:30:11;;;;;;;6.10;4.25;;;;;;;;;;6280993;22;20502;-78
2023/11/26 04:32:38;;;;;;;5.78;4.10;;;;;;;;;;6281012;22;20208;-78
2023/11/26 04:35:07;;;;;;;5.70;3.22;;;;;;;;;;6281673;22;20203;-78
2023/11/26 04:37:35;;;;;;;3.03;2.80;;;;;;;;;;6281983;22;20704;-78
2023/11/26 04:40:05;;;;;;;3.35;3.05;;;;;;;;;;6279632;22;20255;-78
2023/11/26 04:42:34;;;;;;;6.60;4.78;;;;;;;;;;6281168;22;20184;-78
2023/11/26 04:45:01;;;;;;;3.28;2.75;;;;;;;;;;6283316;22;20255;-78
2023/11/26 04:47:29;;;;;;;5.85;5.25;;;;;;;;;;6282345;22;20224;-78
2023/11/26 04:49:58;;;;;;;4.40;3.67;;;;;;;;;;6282269;22;20241;-78
2023/11/26 04:52:26;;;;;;;3.65;3.22;;;;;;;;;;6282884;22;20206;-78
2023/11/26 04:54:53;;;;;;;4.90;4.32;;;;;;;;;;6277496;22;20490;-77
2023/11/26 04:57:20;;;;;;;6.25;4.57;;;;;;;;;;6278225;22;20305;-77
2023/11/26 04:59:49;;;;;;;5.55;4.97;;;;;;;;;;6276277;22;20180;-77
2023/11/26 05:02:18;;;;;;;4.82;3.90;;;;;;;;;;6277063;22;20592;-78
2023/11/26 05:04:47;;;;;;;4.90;4.43;;;;;;;;;;6280587;22;20589;-78
2023/11/26 05:07:15;;;;;;;4.07;3.40;;;;;;;;;;6281358;22;20180;-78
2023/11/26 05:09:43;;;;;;;3.30;3.10;;;;;;;;;;6280908;22;20227;-76
2023/11/26 05:12:11;;;;;;;5.05;4.10;;;;;;;;;;6280430;22;20172;-78
2023/11/26 05:14:38;;;;;;;9.57;5.20;;;;;;;;;;6280444;22;20736;-78
2023/11/26 05:17:08;;;;;;;4.25;3.70;;;;;;;;;;6280051;22;20676;-78
2023/11/26 05:19:35;;;;;;;4.40;3.47;;;;;;;;;;6280559;22;20184;-77
2023/11/26 05:22:03;;;;;;;4.07;3.67;;;;;;;;;;6280309;22;20200;-78
2023/11/26 05:24:30;;;;;;;3.58;2.92;;;;;;;;;;6281866;22;20554;-78
2023/11/26 05:26:58;;;;;;;2.90;2.67;;;;;;;;;;6280286;22;20250;-77
2023/11/26 05:29:25;;;;;;;3.35;3.05;;;;;;;;;;6280191;22;20279;-76
2023/11/26 05:31:52;;;;;;;3.95;3.28;;;;;;;;;;6279896;22;20273;-78
2023/11/26 05:34:21;;;;;;;4.68;4.18;;;;;;;;;;6280229;22;20176;-78
2023/11/26 05:36:49;;;;;;;4.95;3.83;;;;;;;;;;6280019;22;20275;-78
2023/11/26 05:39:17;;;;;;;3.67;3.38;;;;;;;;;;6280076;22;20192;-78
2023/11/26 05:41:45;;;;;;;2.83;2.60;;;;;;;;;;6279614;22;20648;-78
2023/11/26 05:44:12;;;;;;;2.95;2.60;;;;;;;;;;6279204;22;20176;-78
2023/11/26 05:46:43;;;;;;;5.95;4.50;;;;;;;;;;6280303;22;20175;-79
2023/11/26 05:49:10;;;;;;;4.03;3.65;;;;;;;;;;6280133;22;20192;-78
2023/11/26 05:51:39;;;;;;;3.25;2.50;;;;;;;;;;6279181;22;20264;-74
2023/11/26 05:54:07;;;;;;;4.07;3.35;;;;;;;;;;6279448;22;20579;-78
2023/11/26 05:56:35;;;;;;;3.25;2.95;;;;;;;;;;6279899;22;20178;-78
2023/11/26 05:59:02;;;;;;;3.95;3.65;;;;;;;;;;6280425;22;20200;-78
2023/11/26 06:01:30;;;;;;;3.00;2.75;;;;;;;;;;6280134;22;20643;-77
2023/11/26 06:03:57;;;;;;;3.15;2.88;;;;;;;;;;6280103;22;20255;-78
2023/11/26 06:06:24;;;;;;;3.20;2.95;;;;;;;;;;6279317;22;20172;-78
2023/11/26 06:08:53;;;;;;;2.92;2.63;;;;;;;;;;6279322;22;20279;-77
2023/11/26 06:11:21;;;;;;;3.17;2.88;;;;;;;;;;6280045;22;20233;-77
2023/11/26 06:13:48;;;;;;;3.33;2.83;;;;;;;;;;6280154;22;20659;-78
2023/11/26 06:16:16;;;;;;;4.65;3.30;;;;;;;;;;6279448;22;20267;-78
2023/11/26 06:18:43;;;;;;;3.03;2.60;;;;;;;;;;6279998;22;20594;-78
2023/11/26 06:21:11;;;;;;;3.97;3.55;;;;;;;;;;6279736;22;20672;-78
2023/11/26 06:23:38;;;;;;;3.08;2.78;;;;;;;;;;6278846;22;20199;-78
2023/11/26 06:26:07;;;;;;;2.92;2.72;;;;;;;;;;6279223;22;20697;-78
2023/11/26 06:28:34;;;;;;;2.65;2.22;;;;;;;;;;6279906;22;20243;-78
2023/11/26 06:31:02;;;;;;;2.40;2.20;;;;;;;;;;6279642;22;20263;-78
2023/11/26 06:33:29;;;;;;;3.50;2.80;;;;;;;;;;6280244;22;20610;-77
2023/11/26 06:35:56;;;;;;;4.28;2.97;;;;;;;;;;6279578;22;20263;-78
2023/11/26 06:38:24;;;;;;;3.95;2.80;;;;;;;;;;6279380;22;20271;-78
2023/11/26 06:40:51;;;;;;;3.83;2.92;;;;;;;;;;6279430;22;20177;-78
2023/11/26 06:43:20;;;;;;;3.50;3.20;;;;;;;;;;6279759;22;20192;-77
2023/11/26 06:45:48;;;;;;;3.80;3.50;;;;;;;;;;6279877;22;20255;-78
2023/11/26 06:48:15;;;;;;;3.88;3.53;;;;;;;;;;6280091;22;20275;-79
2023/11/26 06:50:42;;;;;;;3.50;3.20;;;;;;;;;;6279738;22;20231;-79
2023/11/26 06:53:10;;;;;;;9.55;6.22;;;;;;;;;;6279098;22;20247;-78
2023/11/26 06:55:37;;;;;;;4.65;4.13;;;;;;;;;;6279861;22;20207;-79
2023/11/26 06:58:05;;;;;;;10.02;6.43;;;;;;;;;;6279850;22;20274;-78
2023/11/26 07:00:35;;;;;;;5.30;4.80;;;;;;;;;;6280080;22;20207;-78
2023/11/26 07:03:02;;;;;;;6.50;5.68;;;;;;;;;;6279558;22;20220;-76
2023/11/26 07:05:30;;;;;;;6.55;5.63;;;;;;;;;;6279675;22;20247;-78
2023/11/26 07:07:57;;;;;;;6.43;5.35;;;;;;;;;;6279445;22;20278;-79
2023/11/26 07:10:24;;;;;;;6.18;3.60;;;;;;;;;;6280016;22;20659;-76
2023/11/26 07:12:55;;;;;;;6.32;5.50;;;;;;;;;;6279146;22;20224;-78
2023/11/26 07:15:22;;;;;;;16.55;7.75;;;;;;;;;;6279116;22;20161;-78
2023/11/26 07:17:51;;;;;;;9.65;6.40;;;;;;;;;;6279746;22;20278;-78
2023/11/26 07:20:21;;;;;;;9.30;6.32;;;;;;;;;;6280220;22;20206;-76
2023/11/26 07:22:48;;;;;;;11.07;7.38;;;;;;;;;;6279992;22;20234;-78
2023/11/26 07:25:16;;;;;;;8.27;5.50;;;;;;;;;;6280177;22;20176;-78
2023/11/26 07:27:44;;;;;;;8.52;6.72;;;;;;;;;;6281811;22;20196;-78
2023/11/26 07:30:14;;;;;;;9.60;7.32;;;;;;;;;;6281765;22;20254;-77
2023/11/26 07:32:44;;;;;;;7.20;5.72;;;;;;;;;;6282419;22;20251;-78
2023/11/26 07:35:13;;;;;;;6.70;4.97;;;;;;;;;;6282379;22;20191;-77
2023/11/26 07:37:40;;;;;;;6.40;4.60;;;;;;;;;;6281823;22;20726;-78
2023/11/26 07:40:12;;;;;;;8.65;5.63;;;;;;;;;;6281213;22;20181;-78
2023/11/26 07:42:40;;;;;;;7.45;6.22;;;;;;;;;;6282930;22;20187;-78
2023/11/26 07:45:09;;;;;;;6.15;5.55;;;;;;;;;;6282670;22;20180;-78
2023/11/26 07:47:36;;;;;;;9.02;7.20;;;;;;;;;;6281633;22;20192;-78
2023/11/26 07:50:06;;;;;;;7.75;6.93;;;;;;;;;;6281313;22;20285;-78
2023/11/26 07:52:35;;;;;;;6.82;5.72;;;;;;;;;;6282371;22;20183;-78
2023/11/26 07:55:04;;;;;;;6.60;5.75;;;;;;;;;;6282195;22;20255;-78
2023/11/26 07:57:32;;;;;;;8.38;7.10;;;;;;;;;;6282491;22;20192;-78
2023/11/26 08:00:00;;;;;;;6.68;5.70;;;;;;;;;;6281956;22;20199;-78
2023/11/26 08:02:29;;;;;;;6.03;5.43;;;;;;;;;;6282956;22;20172;-78
2023/11/26 08:04:57;;;;;;;5.78;5.07;;;;;;;;;;6282421;22;20505;-78
2023/11/26 08:07:26;;;;;;;10.68;5.95;;;;;;;;;;6282141;22;20172;-78
2023/11/26 08:09:56;;;;;;;4.20;3.80;;;;;;;;;;6282592;22;20187;-78
2023/11/26 08:12:28;;;;;;;4.10;3.70;;;;;;;;;;6282497;22;20199;-79
2023/11/26 08:15:00;;;;;;;6.97;5.13;;;;;;;;;;6281836;22;20641;-79
2023/11/26 08:17:30;;;;;;;4.45;3.88;;;;;;;;;;6282279;22;20246;-79
2023/11/26 08:19:58;;;;;;;5.55;4.45;;;;;;;;;;6282048;22;20535;-78
2023/11/26 08:22:26;;;;;;;4.68;4.15;;;;;;;;;;6282004;22;20191;-78
2023/11/26 08:25:00;;;;;;;4.80;3.90;;;;;;;;;;6281000;22;20736;-78
2023/11/26 08:27:28;;;;;;;3.38;3.08;;;;;;;;;;6281529;22;20192;-78
2023/11/26 08:29:58;;;;;;;3.65;3.10;;;;;;;;;;6281988;22;20416;-79
2023/11/26 08:32:25;;;;;;;3.67;3.28;;;;;;;;;;6281861;22;20203;-77
2023/11/26 08:34:55;;;;;;;2.50;2.30;;;;;;;;;;6281478;22;20218;-78
2023/11/26 08:37:24;;;;;;;3.55;3.25;;;;;;;;;;6282115;22;20172;-78
2023/11/26 08:39:52;;;;;;;3.00;2.75;;;;;;;;;;6281066;22;20181;-78
2023/11/26 08:42:20;;;;;;;4.32;3.53;;;;;;;;;;6280289;22;20192;-77
2023/11/26 08:44:50;;;;;;;4.32;3.92;;;;;;;;;;6280985;22;20192;-78
2023/11/26 08:47:20;;;;;;;5.10;4.60;;;;;;;;;;6281385;22;20223;-78
2023/11/26 08:49:47;;;;;;;3.40;3.08;;;;;;;;;;6281467;22;20180;-78
2023/11/26 08:52:14;;;;;;;3.80;3.33;;;;;;;;;;6281222;22;20247;-77
2023/11/26 08:54:42;;;;;;;3.53;2.80;;;;;;;;;;6280787;22;20200;-77
2023/11/26 08:57:10;;;;;;;3.15;2.83;;;;;;;;;;6282215;22;20181;-78
2023/11/26 08:59:39;;;;;;;3.00;2.70;;;;;;;;;;6281498;22;20232;-78
2023/11/26 09:02:06;;;;;;;4.10;3.70;;;;;;;;;;6280907;22;20251;-78
2023/11/26 09:04:34;;;;;;;3.55;3.17;;;;;;;;;;6280918;22;20574;-78
2023/11/26 09:07:01;;;;;;;3.42;3.13;;;;;;;;;;6281103;22;20254;-78
2023/11/26 09:09:29;;;;;;;4.75;3.90;;;;;;;;;;6279286;22;20703;-78
2023/11/26 09:11:56;;;;;;;4.90;3.50;;;;;;;;;;6280063;22;20203;-78
2023/11/26 09:14:23;;;;;;;3.10;2.80;;;;;;;;;;6279549;22;20243;-78
2023/11/26 09:16:52;;;;;;;2.30;2.10;;;;;;;;;;6279443;22;20179;-78
2023/11/26 09:19:20;;;;;;;2.65;2.45;;;;;;;;;;6279823;22;20239;-77
2023/11/26 09:21:49;;;;;;;4.10;3.50;;;;;;;;;;6279286;22;20172;-78
2023/11/26 09:24:17;;;;;;;4.53;4.13;;;;;;;;;;6279881;22;20199;-77
2023/11/26 09:26:45;;;;;;;5.63;3.88;;;;;;;;;;6279865;22;20257;-78
2023/11/26 09:29:12;;;;;;;4.93;3.90;;;;;;;;;;6279124;22;20200;-78
2023/11/26 09:31:43;;;;;;;4.35;3.70;;;;;;;;;;6279217;22;20665;-78
2023/11/26 09:34:12;;;;;;;4.15;3.50;;;;;;;;;;6278632;22;20179;-78
2023/11/26 09:36:41;;;;;;;7.53;4.70;;;;;;;;;;6279754;22;20236;-78
2023/11/26 09:39:10;;;;;;;3.88;3.47;;;;;;;;;;6279834;22;20231;-77
2023/11/26 09:41:38;;;;;;;2.47;2.28;;;;;;;;;;6279501;22;20259;-77
2023/11/26 09:44:07;;;;;;;3.88;3.47;;;;;;;;;;6279956;22;20218;-78
2023/11/26 09:46:35;;;;;;;4.65;4.00;;;;;;;;;;6280200;22;20561;-77
2023/11/26 09:49:03;;;;;;;4.50;3.47;;;;;;;;;;6280328;22;20201;-78
2023/11/26 09:51:33;;;;;;;4.55;3.10;;;;;;;;;;6280001;22;20234;-78
2023/11/26 09:54:00;;;;;;;3.40;3.10;;;;;;;;;;6279875;22;20267;-78
2023/11/26 09:56:27;;;;;;;6.13;3.42;;;;;;;;;;6280329;22;20260;-77
2023/11/26 09:58:55;;;;;;;4.43;3.72;;;;;;;;;;6278651;22;20295;-77
2023/11/26 10:01:22;;;;;;;3.67;3.30;;;;;;;;;;6279341;22;20255;-78
2023/11/26 10:04:00;;;;;;;4.90;3.67;;;;;;;;;;6279805;22;20254;-77
2023/11/26 10:06:28;;;;;;;4.70;3.45;;;;;;;;;;6279204;22;20244;-77
2023/11/26 10:08:58;;;;;;;4.32;3.25;;;;;;;;;;6279887;22;20216;-77
2023/11/26 10:11:27;;;;;;;5.25;3.88;;;;;;;;;;6280420;22;20165;-78
2023/11/26 10:13:55;;;;;;;4.32;3.63;;;;;;;;;;6280247;22;20255;-78
2023/11/26 10:16:32;;;;;;;2.88;2.67;;;;;;;;;;6280399;22;20549;-78
2023/11/26 10:19:01;;;;;;;2.78;2.58;;;;;;;;;;6279934;22;20250;-77
2023/11/26 10:21:30;;;;;;;3.15;2.80;;;;;;;;;;6280173;22;20176;-78
2023/11/26 10:24:01;;;;;;;2.60;2.25;;;;;;;;;;6278474;22;20219;-78
2023/11/26 10:26:29;;;;;;;2.97;2.67;;;;;;;;;;6280242;22;20168;-79
2023/11/26 10:29:07;;;;;;;4.95;3.53;;;;;;;;;;6279790;22;20242;-79
2023/11/26 10:31:35;;;;;;;3.58;3.28;;;;;;;;;;6280078;22;20166;-78
2023/11/26 10:34:13;;;;;;;2.47;2.28;;;;;;;;;;6279252;22;20204;-78
2023/11/26 10:36:41;;;;;;;3.45;3.15;;;;;;;;;;6280025;22;20589;-78
2023/11/26 10:39:11;;;;;;;6.20;5.25;;;;;;;;;;6279509;22;20525;-78
2023/11/26 10:41:39;;;;;;;4.72;4.22;;;;;;;;;;6278220;22;20665;-77
2023/11/26 10:44:08;;;;;;;8.70;7.63;;;;;;;;;;6278873;22;20200;-78
2023/11/26 10:46:36;;;;;;;6.43;5.10;;;;;;;;;;6279196;22;20206;-78
2023/11/26 10:49:09;;;;;;;5.43;4.38;;;;;;;;;;6278748;22;20192;-77
2023/11/26 10:51:40;;;;;;;5.97;4.78;;;;;;;;;;6278296;22;20161;-78
2023/11/26 10:54:18;;;;;;;8.60;6.07;;;;;;;;;;6279095;22;20173;-77
2023/11/26 10:56:49;;;;;;;4.80;3.50;;;;;;;;;;6279611;22;20160;-79
2023/11/26 10:59:19;;;;;;;7.18;6.38;;;;;;;;;;6280293;22;20193;-77
2023/11/26 11:01:48;;;;;;;4.25;3.85;;;;;;;;;;6279931;22;20172;-78
2023/11/26 11:04:16;;;;;;;5.00;4.05;;;;;;;;;;6279697;22;20222;-79
2023/11/26 11:06:44;;;;;;;5.18;4.38;;;;;;;;;;6279772;22;20248;-79
2023/11/26 11:09:18;;;;;;;5.90;5.00;;;;;;;;;;6280594;22;20196;-79
2023/11/26 11:11:55;;;;;;;5.68;5.10;;;;;;;;;;6280428;22;20172;-79
2023/11/26 11:14:23;;;;;;;6.32;5.10;;;;;;;;;;6280710;22;20156;-78
2023/11/26 11:16:51;;;;;;;7.32;5.10;;;;;;;;;;6280396;22;20251;-77
2023/11/26 11:19:49;;;;;;;3.80;3.50;;;;;;;;;;6278945;22;20226;-78
2023/11/26 11:22:17;;;;;;;4.97;4.47;;;;;;;;;;6280014;22;20183;-78
2023/11/26 11:24:46;;;;;;;5.88;4.90;;;;;;;;;;6280454;22;20196;-78
2023/11/26 11:27:13;;;;;;;6.22;4.65;;;;;;;;;;6280947;22;20196;-79
2023/11/26 11:29:42;;;;;;;4.35;3.80;;;;;;;;;;6280294;22;20227;-79
2023/11/26 11:32:09;;;;;;;5.38;4.88;;;;;;;;;;6280906;22;20177;-78
2023/11/26 11:34:37;;;;;;;4.53;4.13;;;;;;;;;;6280556;22;20212;-79
2023/11/26 11:37:08;;;;;;;3.80;3.50;;;;;;;;;;6280068;22;20208;-78
2023/11/26 11:39:49;;;;;;;3.83;3.53;;;;;;;;;;6280368;22;20239;-79
2023/11/26 11:42:21;;;;;;;3.67;3.35;;;;;;;;;;6280990;22;20235;-78
2023/11/26 11:44:49;;;;;;;5.45;3.97;;;;;;;;;;6280605;22;20153;-79
2023/11/26 11:47:42;;;;;;;6.38;3.97;;;;;;;;;;6279530;22;20189;-79
2023/11/26 11:50:10;;;;;;;3.97;3.25;;;;;;;;;;6280435;22;20157;-79
2023/11/26 11:52:38;;;;;;;6.07;3.70;;;;;;;;;;6279924;22;20203;-79
2023/11/26 11:55:44;;;;;;;3.05;2.75;;;;;;;;;;6279310;22;20173;-79
2023/11/26 11:58:14;;;;;;;4.30;3.33;;;;;;;;;;6280716;22;20271;-79
2023/11/26 12:00:43;;;;;;;2.38;2.15;;;;;;;;;;6279533;22;20617;-78
2023/11/26 12:03:17;;;;;;;4.57;3.75;;;;;;;;;;6279534;22;20275;-79
2023/11/26 12:05:44;;;;;;;2.88;2.60;;;;;;;;;;6280556;22;20487;-79
2023/11/26 12:08:15;;;;;;;2.83;2.17;;;;;;;;;;6279069;22;20319;-78
2023/11/26 12:10:44;;;;;;;2.22;1.95;;;;;;;;;;6279845;22;20176;-79
2023/11/26 12:13:12;;;;;;;2.10;1.90;;;;;;;;;;6280397;22;20172;-79
2023/11/26 12:15:40;;;;;;;3.08;2.83;;;;;;;;;;6281308;22;20259;-78
2023/11/26 12:18:07;;;;;;;6.03;4.38;;;;;;;;;;6281209;22;20271;-78
2023/11/26 12:20:35;;;;;;;4.60;3.13;;;;;;;;;;6280680;22;20204;-78
2023/11/26 12:23:02;;;;;;;5.70;3.33;;;;;;;;;;6281556;22;20267;-79
2023/11/26 12:25:30;;;;;;;3.53;2.40;;;;;;;;;;6281126;22;20222;-79
2023/11/26 12:28:06;;;;;;;3.10;2.35;;;;;;;;;;6280220;22;20577;-78
2023/11/26 12:30:36;;;;;;;2.25;2.08;;;;;;;;;;6280947;22;20164;-79
2023/11/26 12:33:04;;;;;;;4.45;3.15;;;;;;;;;;6280732;22;20553;-79
2023/11/26 12:35:33;;;;;;;7.38;3.40;;;;;;;;;;6281068;22;20168;-78
2023/11/26 12:38:01;;;;;;;2.65;2.45;;;;;;;;;;6281068;22;20199;-79
2023/11/26 12:40:30;;;;;;;2.90;2.60;;;;;;;;;;6280724;22;20183;-79
2023/11/26 12:42:58;;;;;;;2.90;2.67;;;;;;;;;;6280512;22;20228;-79
2023/11/26 12:45:26;;;;;;;4.30;3.58;;;;;;;;;;6279542;22;20200;-79
2023/11/26 12:47:55;;;;;;;4.18;3.30;;;;;;;;;;6280411;22;20732;-79
2023/11/26 12:50:23;;;;;;;3.10;2.80;;;;;;;;;;6280812;22;20183;-79
2023/11/26 12:52:51;;;;;;;4.25;3.08;;;;;;;;;;6281038;22;20176;-79
2023/11/26 12:55:20;;;;;;;3.85;2.83;;;;;;;;;;6280717;22;20568;-79
2023/11/26 12:57:48;;;;;;;3.58;2.97;;;;;;;;;;6280862;22;20193;-79
2023/11/26 13:00:16;;;;;;;3.42;2.42;;;;;;;;;;6280879;22;20568;-79
2023/11/26 13:02:48;;;;;;;3.13;2.55;;;;;;;;;;6279868;22;20569;-79
2023/11/26 13:05:26;;;;;;;2.10;1.90;;;;;;;;;;6280810;22;20248;-79
2023/11/26 13:07:55;;;;;;;4.55;2.50;;;;;;;;;;6280338;22;20192;-79
2023/11/26 13:10:37;;;;;;;2.67;2.10;;;;;;;;;;6280552;22;20183;-77
2023/11/26 13:13:04;;;;;;;3.45;2.63;;;;;;;;;;6280216;22;20207;-79
2023/11/26 13:15:32;;;;;;;2.35;2.05;;;;;;;;;;6280509;22;20259;-78
2023/11/26 13:18:01;;;;;;;4.07;2.28;;;;;;;;;;6279796;22;20275;-79
2023/11/26 13:20:28;;;;;;;4.95;3.03;;;;;;;;;;6279953;22;20264;-78
2023/11/26 13:22:56;;;;;;;3.38;2.58;;;;;;;;;;6279703;22;20187;-79
2023/11/26 13:25:23;;;;;;;3.53;3.22;;;;;;;;;;6280695;22;20279;-79
2023/11/26 13:27:51;;;;;;;3.20;2.90;;;;;;;;;;6279841;22;20224;-78
2023/11/26 13:30:19;;;;;;;2.90;2.60;;;;;;;;;;6280245;22;20256;-79
2023/11/26 13:32:47;;;;;;;3.13;2.80;;;;;;;;;;6280281;22;20211;-80
2023/11/26 13:35:15;;;;;;;4.20;3.25;;;;;;;;;;6279829;22;20693;-78
2023/11/26 13:37:43;;;;;;;4.35;3.10;;;;;;;;;;6279096;22;20195;-79
2023/11/26 13:40:15;;;;;;;2.88;2.67;;;;;;;;;;6280719;22;20510;-78
2023/11/26 13:42:43;;;;;;;5.78;3.95;;;;;;;;;;6280893;22;20164;-78
2023/11/26 13:45:11;;;;;;;3.05;2.53;;;;;;;;;;6280266;22;20180;-79
2023/11/26 13:47:40;;;;;;;3.80;3.33;;;;;;;;;;6279587;22;20211;-79
2023/11/26 13:50:10;;;;;;;11.13;4.75;;;;;;;;;;6281141;22;20177;-79
2023/11/26 13:52:38;;;;;;;6.38;3.53;;;;;;;;;;6279808;22;20183;-78
2023/11/26 13:55:08;;;;;;;4.20;2.58;;;;;;;;;;6280141;22;20255;-78
2023/11/26 13:57:36;;;;;;;3.60;3.03;;;;;;;;;;6280591;22;20227;-79
2023/11/26 14:00:09;;;;;;;4.75;4.22;;;;;;;;;;6280529;22;20705;-78
2023/11/26 14:02:36;;;;;;;6.28;3.53;;;;;;;;;;6280296;22;20167;-79
2023/11/26 14:05:11;;;;;;;3.15;2.85;;;;;;;;;;6279972;22;20211;-79
2023/11/26 14:07:41;;;;;;;11.50;4.13;;;;;;;;;;6279607;22;20200;-80
2023/11/26 14:10:13;;;;;;;4.13;3.45;;;;;;;;;;6279995;22;20204;-79
2023/11/26 14:12:41;;;;;;;5.40;2.85;;;;;;;;;;6280118;22;20582;-79
2023/11/26 14:15:10;;;;;;;3.50;3.10;;;;;;;;;;6279604;22;20173;-79
2023/11/26 14:17:40;;;;;;;5.72;3.70;;;;;;;;;;6280088;22;20271;-79
2023/11/26 14:20:09;;;;;;;8.45;6.95;;;;;;;;;;6280370;22;20176;-79
2023/11/26 14:22:36;;;;;;;4.53;3.85;;;;;;;;;;6280045;22;20184;-79
2023/11/26 14:25:07;;;;;;;6.70;4.10;;;;;;;;;;6280447;22;20259;-78
2023/11/26 14:27:35;;;;;;;9.65;5.25;;;;;;;;;;6279367;22;20197;-78
2023/11/26 14:30:03;;;;;;;9.00;4.40;;;;;;;;;;6280463;22;20705;-78
2023/11/26 14:32:30;;;;;;;5.28;3.28;;;;;;;;;;6280578;22;20625;-79
2023/11/26 14:34:58;;;;;;;3.65;3.00;;;;;;;;;;6280206;22;20262;-79
2023/11/26 14:37:25;;;;;;;4.00;3.10;;;;;;;;;;6280233;22;20179;-79
2023/11/26 14:39:53;;;;;;;7.32;4.63;;;;;;;;;;6279594;22;20176;-78
2023/11/26 14:42:23;;;;;;;4.18;3.13;;;;;;;;;;6279197;22;20561;-79
2023/11/26 14:44:50;;;;;;;6.18;3.55;;;;;;;;;;6280210;22;20641;-79
2023/11/26 14:47:18;;;;;;;6.03;3.20;;;;;;;;;;6279643;22;20219;-78
2023/11/26 14:49:46;;;;;;;6.43;3.45;;;;;;;;;;6279992;22;20172;-78
2023/11/26 14:52:15;;;;;;;6.80;3.80;;;;;;;;;;6280063;22;20689;-79
2023/11/26 14:54:43;;;;;;;6.63;3.85;;;;;;;;;;6279988;22;20172;-80